Time;durP1;ratioP1;P1;durP2;ratioP2;P2;SDS_P1;SDS_P2;PMS_P1;PMS_P2;Temp;Humidity;BMP_temperature;BMP_pressure;BME280_temperature;BME280_humidity;BME280_pressure;Samples;Min_cycle;Max_cycle;Signal;HPM_P1;HPM_P2
2022/11/06 00:00:16;;;;;;;12.75;7.78;;;9.80;99.90;;;;;;5146424;27;20034;-47
2022/11/06 00:02:43;;;;;;;15.88;7.97;;;9.60;99.90;;;;;;5146792;27;20026;-48
2022/11/06 00:07:53;;;;;;;13.40;7.57;;;9.70;99.90;;;;;;5144715;27;20038;-48
2022/11/06 00:10:18;;;;;;;15.75;8.38;;;9.70;99.90;;;;;;5137522;27;20038;-49
2022/11/06 00:12:45;;;;;;;16.08;8.50;;;9.60;99.90;;;;;;5134749;27;20039;-49
2022/11/06 00:15:11;;;;;;;12.93;8.05;;;9.70;99.90;;;;;;5134044;27;20035;-49
2022/11/06 00:17:37;;;;;;;12.25;7.22;;;9.60;99.90;;;;;;5139214;27;20091;-49
2022/11/06 00:20:04;;;;;;;13.85;7.65;;;9.60;99.90;;;;;;5134450;27;20024;-50
2022/11/06 00:22:34;;;;;;;11.32;7.30;;;9.60;99.90;;;;;;5142107;27;20034;-49
2022/11/06 00:25:00;;;;;;;15.15;7.68;;;9.70;99.90;;;;;;5121315;27;20117;-49
2022/11/06 00:27:26;;;;;;;14.85;8.00;;;9.60;99.90;;;;;;5146270;27;20374;-50
2022/11/06 00:29:52;;;;;;;14.13;7.47;;;9.60;99.90;;;;;;5134292;27;20035;-48
2022/11/06 00:32:17;;;;;;;16.80;7.70;;;9.60;99.90;;;;;;5139744;27;20554;-49
2022/11/06 00:34:43;;;;;;;16.98;7.75;;;9.60;99.90;;;;;;5144711;27;20034;-48
2022/11/06 00:37:09;;;;;;;13.48;7.43;;;9.60;99.90;;;;;;5136149;27;20031;-47
2022/11/06 00:39:34;;;;;;;11.85;7.03;;;9.70;99.90;;;;;;5134223;27;20074;-48
2022/11/06 00:42:00;;;;;;;14.82;7.65;;;9.60;99.90;;;;;;5142548;27;20042;-50
2022/11/06 00:44:26;;;;;;;12.45;7.25;;;9.60;99.90;;;;;;5145722;27;20034;-48
2022/11/06 00:46:51;;;;;;;15.43;7.38;;;9.70;99.90;;;;;;5144462;27;20043;-53
2022/11/06 00:49:17;;;;;;;18.48;7.20;;;9.80;99.90;;;;;;5141846;27;20053;-48
2022/11/06 00:51:42;;;;;;;15.93;7.28;;;9.70;99.90;;;;;;5118907;27;20114;-49
2022/11/06 00:54:12;;;;;;;14.23;7.53;;;9.70;99.90;;;;;;5139179;27;20114;-51
2022/11/06 00:56:38;;;;;;;17.50;7.85;;;9.70;99.90;;;;;;5134163;27;20043;-49
2022/11/06 00:59:06;;;;;;;14.02;7.10;;;9.60;99.90;;;;;;5118753;27;20042;-47
2022/11/06 01:01:37;;;;;;;17.38;8.35;;;9.50;99.90;;;;;;5135196;27;20507;-50
2022/11/06 01:04:12;;;;;;;10.82;7.60;;;9.60;99.90;;;;;;5135812;27;20046;-50
2022/11/06 01:06:42;;;;;;;14.77;8.23;;;9.60;99.90;;;;;;5119593;27;20051;-48
2022/11/06 01:09:10;;;;;;;15.32;7.93;;;9.40;99.90;;;;;;5141036;27;20370;-47
2022/11/06 01:11:39;;;;;;;19.20;8.55;;;9.50;99.90;;;;;;5143361;27;20103;-47
2022/11/06 01:14:07;;;;;;;14.52;8.30;;;9.50;99.90;;;;;;5145268;27;20064;-50
2022/11/06 01:16:34;;;;;;;15.45;8.82;;;9.30;99.90;;;;;;5148887;27;20039;-47
2022/11/06 01:19:00;;;;;;;13.68;8.10;;;9.30;99.90;;;;;;5149169;27;20385;-47
2022/11/06 01:21:32;;;;;;;17.52;9.13;;;9.40;99.90;;;;;;5142082;27;20039;-51
2022/11/06 01:24:00;;;;;;;17.42;8.70;;;9.30;99.90;;;;;;5145228;27;20038;-49
2022/11/06 01:26:27;;;;;;;14.38;8.57;;;9.40;99.90;;;;;;5156338;27;20034;-50
2022/11/06 01:28:53;;;;;;;15.70;8.77;;;9.30;99.90;;;;;;5123744;27;20030;-50
2022/11/06 01:31:22;;;;;;;14.23;7.90;;;9.40;99.90;;;;;;5119038;27;20047;-48
2022/11/06 01:33:48;;;;;;;13.85;8.35;;;9.30;99.90;;;;;;5144255;27;20045;-47
2022/11/06 01:36:17;;;;;;;21.13;9.52;;;9.40;99.90;;;;;;5142343;27;20030;-50
2022/11/06 01:38:52;;;;;;;14.20;8.93;;;9.30;99.90;;;;;;5135276;27;20092;-51
2022/11/06 01:41:31;;;;;;;14.35;8.90;;;9.30;99.90;;;;;;5137478;27;20066;-49
2022/11/06 01:44:04;;;;;;;15.70;8.80;;;9.30;99.90;;;;;;5146553;27;20550;-50
2022/11/06 01:46:33;;;;;;;14.57;9.13;;;9.30;99.90;;;;;;5138282;27;20035;-48
2022/11/06 01:49:06;;;;;;;17.50;9.27;;;9.40;99.90;;;;;;5140648;27;20089;-49
2022/11/06 01:51:42;;;;;;;16.35;9.38;;;9.10;99.90;;;;;;5137548;27;20047;-48
2022/11/06 01:54:09;;;;;;;15.85;9.30;;;9.30;99.90;;;;;;5138744;27;20099;-48
2022/11/06 01:56:36;;;;;;;20.00;10.30;;;9.30;99.90;;;;;;5126789;27;20039;-48
2022/11/06 01:59:03;;;;;;;16.88;9.57;;;9.30;99.90;;;;;;5137710;27;20363;-49
2022/11/06 02:01:29;;;;;;;16.90;9.38;;;9.20;99.90;;;;;;5139569;27;20488;-48
2022/11/06 02:04:09;;;;;;;16.25;9.82;;;9.10;99.90;;;;;;5139056;27;20043;-52
2022/11/06 02:06:36;;;;;;;17.70;10.18;;;9.00;99.90;;;;;;5142108;27;20031;-48
2022/11/06 02:09:10;;;;;;;17.60;9.88;;;9.30;99.90;;;;;;5139968;27;20479;-48
2022/11/06 02:11:37;;;;;;;17.10;10.45;;;9.30;99.90;;;;;;5143816;27;20470;-47
2022/11/06 02:14:35;;;;;;;17.90;9.77;;;9.00;99.90;;;;;;5143823;27;20047;-48
2022/11/06 02:17:14;;;;;;;16.45;9.57;;;9.20;99.90;;;;;;5119355;27;20126;-48
2022/11/06 02:20:07;;;;;;;17.80;9.65;;;9.20;99.90;;;;;;5134070;27;20706;-49
2022/11/06 02:22:51;;;;;;;18.48;10.10;;;9.10;99.90;;;;;;5141926;27;20045;-49
2022/11/06 02:25:36;;;;;;;18.33;9.73;;;9.00;99.90;;;;;;5138787;27;20062;-50
2022/11/06 02:28:33;;;;;;;16.10;9.63;;;9.30;99.90;;;;;;5146783;27;20047;-48
2022/11/06 02:31:06;;;;;;;19.00;9.70;;;9.30;99.90;;;;;;5146685;27;20035;-52
2022/11/06 02:33:36;;;;;;;16.55;9.57;;;9.20;99.90;;;;;;5147780;27;20043;-47
2022/11/06 02:36:07;;;;;;;17.10;8.82;;;9.10;99.90;;;;;;5132908;27;20038;-48
2022/11/06 02:38:43;;;;;;;17.13;8.82;;;9.40;99.90;;;;;;5134587;27;20122;-47
2022/11/06 02:41:16;;;;;;;15.35;8.90;;;9.40;99.90;;;;;;5136868;27;20035;-49
2022/11/06 02:43:47;;;;;;;15.18;8.65;;;9.40;99.90;;;;;;5136172;27;20038;-47
2022/11/06 02:46:15;;;;;;;14.63;9.15;;;9.40;99.90;;;;;;5144533;27;20034;-47
2022/11/06 02:48:47;;;;;;;14.57;9.40;;;9.20;99.90;;;;;;5143469;27;20058;-48
2022/11/06 02:51:20;;;;;;;18.50;9.32;;;9.20;99.90;;;;;;5140797;27;20434;-47
2022/11/06 02:53:47;;;;;;;16.70;8.80;;;9.40;99.90;;;;;;5137163;27;20059;-48
2022/11/06 02:56:26;;;;;;;15.85;8.80;;;9.20;99.90;;;;;;5141072;27;20382;-47
2022/11/06 02:59:02;;;;;;;15.90;8.60;;;9.30;99.90;;;;;;5137120;27;20468;-48
2022/11/06 03:01:33;;;;;;;15.18;8.77;;;9.30;99.90;;;;;;5137400;27;20043;-47
2022/11/06 03:04:07;;;;;;;17.70;9.25;;;9.40;99.90;;;;;;5143748;27;20131;-48
2022/11/06 03:06:39;;;;;;;15.30;8.95;;;9.30;99.90;;;;;;5141786;27;20035;-48
2022/11/06 03:09:13;;;;;;;14.65;8.00;;;9.20;99.90;;;;;;5144251;27;20034;-47
2022/11/06 03:11:39;;;;;;;;;;;9.30;99.90;;;;;;5128080;27;20050;-49
2022/11/06 03:14:18;;;;;;;13.60;8.00;;;9.30;99.90;;;;;;5143650;27;19922;-48
2022/11/06 03:17:11;;;;;;;14.70;8.45;;;9.10;99.90;;;;;;5139230;27;20039;-47
2022/11/06 03:19:48;;;;;;;18.63;8.38;;;9.40;99.90;;;;;;5136964;27;20115;-47
2022/11/06 03:22:39;;;;;;;17.17;8.68;;;9.40;99.90;;;;;;5140945;27;20732;-48
2022/11/06 03:25:15;;;;;;;17.40;8.02;;;9.10;99.90;;;;;;5135484;27;20070;-47
2022/11/06 03:28:01;;;;;;;18.52;9.45;;;9.20;99.90;;;;;;5144805;27;20039;-47
2022/11/06 03:30:27;;;;;;;16.25;8.85;;;9.00;99.90;;;;;;5142587;27;20042;-47
2022/11/06 03:32:59;;;;;;;12.60;9.02;;;9.10;99.90;;;;;;5145038;27;20050;-46
2022/11/06 03:35:42;;;;;;;18.63;8.85;;;9.00;99.90;;;;;;5144454;27;20038;-48
2022/11/06 03:38:19;;;;;;;17.08;9.10;;;9.20;99.90;;;;;;5135435;27;20042;-48
2022/11/06 03:40:50;;;;;;;18.17;8.73;;;9.10;99.90;;;;;;5137804;27;20051;-47
2022/11/06 03:43:20;;;;;;;20.48;8.38;;;9.20;99.90;;;;;;5117520;27;20047;-47
2022/11/06 03:45:48;;;;;;;13.23;8.57;;;9.00;99.90;;;;;;5145930;27;20398;-47
2022/11/06 03:48:19;;;;;;;15.00;8.85;;;9.30;99.90;;;;;;5146507;27;20035;-48
2022/11/06 03:51:05;;;;;;;17.63;8.43;;;9.10;99.90;;;;;;5143720;27;21358;-52
2022/11/06 03:53:40;;;;;;;17.20;8.32;;;9.20;99.90;;;;;;5122291;27;20059;-51
2022/11/06 03:56:15;;;;;;;14.85;8.13;;;8.90;99.90;;;;;;5140937;27;20027;-48
2022/11/06 03:58:46;;;;;;;22.33;9.43;;;8.80;99.90;;;;;;5140486;27;20023;-48
2022/11/06 04:01:14;;;;;;;16.58;8.68;;;8.90;99.90;;;;;;5131100;27;20069;-47
2022/11/06 04:04:00;;;;;;;14.65;7.95;;;8.90;99.90;;;;;;5140962;27;20034;-49
2022/11/06 04:06:52;;;;;;;16.75;8.60;;;9.00;99.90;;;;;;5142273;27;20035;-49
2022/11/06 04:14:53;;;;;;;16.52;9.07;;;8.90;99.90;;;;;;5145827;27;20114;-48
2022/11/06 04:17:21;;;;;;;22.27;9.27;;;8.80;99.90;;;;;;5140686;27;20034;-48
2022/11/06 04:19:56;;;;;;;16.15;8.13;;;9.10;99.90;;;;;;5140349;27;20375;-49
2022/11/06 04:22:42;;;;;;;17.88;8.10;;;9.00;99.90;;;;;;5138335;27;20077;-50
2022/11/06 04:28:15;;;;;;;17.92;7.82;;;8.90;99.90;;;;;;5140367;27;20054;-49
2022/11/06 04:30:56;;;;;;;14.68;8.23;;;8.80;99.90;;;;;;5144926;27;20107;-50
2022/11/06 04:33:29;;;;;;;16.70;8.18;;;9.10;99.90;;;;;;5134075;27;20035;-51
2022/11/06 04:36:13;;;;;;;17.38;7.95;;;8.80;99.90;;;;;;5139417;27;20110;-50
2022/11/06 04:39:21;;;;;;;14.32;7.90;;;8.70;99.90;;;;;;5136482;27;20109;-50
2022/11/06 04:41:52;;;;;;;14.27;7.78;;;8.80;99.90;;;;;;5127674;27;20120;-49
2022/11/06 04:44:49;;;;;;;13.57;8.52;;;9.10;99.90;;;;;;5147705;27;20503;-47
2022/11/06 04:47:18;;;;;;;17.77;8.73;;;9.00;99.90;;;;;;5138411;27;20055;-49
2022/11/06 04:49:45;;;;;;;16.83;8.05;;;8.80;99.90;;;;;;5148509;27;20035;-47
2022/11/06 04:52:16;;;;;;;14.68;7.15;;;9.10;99.90;;;;;;5144861;27;20038;-48
2022/11/06 04:54:44;;;;;;;19.77;8.40;;;9.00;99.90;;;;;;5139441;27;20027;-48
2022/11/06 04:57:10;;;;;;;18.98;7.57;;;9.30;99.90;;;;;;5135167;27;20106;-51
2022/11/06 04:59:36;;;;;;;16.30;7.80;;;8.70;99.90;;;;;;5145956;27;20752;-49
2022/11/06 05:02:02;;;;;;;16.02;7.68;;;9.20;99.90;;;;;;5139128;27;20548;-48
2022/11/06 05:04:28;;;;;;;17.13;7.65;;;9.20;99.90;;;;;;5141975;27;20049;-48
2022/11/06 05:06:53;;;;;;;12.75;7.15;;;9.20;99.90;;;;;;5146023;27;20482;-50
2022/11/06 05:09:19;;;;;;;15.00;6.80;;;8.80;99.90;;;;;;5144781;27;20035;-50
2022/11/06 05:11:45;;;;;;;16.08;7.07;;;8.80;99.90;;;;;;5146232;27;20039;-50
2022/11/06 05:14:10;;;;;;;12.05;6.35;;;9.20;99.90;;;;;;5147003;27;20079;-50
2022/11/06 05:16:36;;;;;;;12.98;6.47;;;9.30;99.90;;;;;;5137959;27;20027;-49
2022/11/06 05:19:02;;;;;;;14.35;6.35;;;9.10;99.90;;;;;;5144719;27;20039;-47
2022/11/06 05:24:12;;;;;;;12.05;5.95;;;9.10;99.90;;;;;;5138060;27;20046;-49
2022/11/06 05:26:37;;;;;;;13.50;5.32;;;9.00;99.90;;;;;;5148107;27;20621;-47
2022/11/06 05:29:03;;;;;;;9.32;5.13;;;9.10;99.90;;;;;;5140994;27;20049;-49
2022/11/06 05:31:29;;;;;;;12.27;4.90;;;9.20;99.90;;;;;;5140793;27;20027;-48
2022/11/06 05:33:55;;;;;;;10.25;4.57;;;9.30;99.90;;;;;;5146844;27;20045;-48
2022/11/06 05:36:21;;;;;;;9.82;4.82;;;9.00;99.90;;;;;;5146015;27;20030;-47
2022/11/06 05:38:46;;;;;;;12.15;4.88;;;9.00;99.90;;;;;;5144623;27;20662;-48
2022/11/06 05:41:12;;;;;;;12.50;4.47;;;9.30;99.90;;;;;;5145743;27;20064;-50
2022/11/06 05:43:38;;;;;;;12.20;4.80;;;9.10;99.90;;;;;;5146716;27;20121;-49
2022/11/06 05:46:04;;;;;;;13.75;4.97;;;9.30;99.90;;;;;;5123053;27;20031;-50
2022/11/06 05:48:29;;;;;;;12.35;4.70;;;9.10;99.90;;;;;;5150399;27;20031;-48
2022/11/06 05:51:03;;;;;;;10.95;4.70;;;9.10;99.90;;;;;;5142741;27;20140;-50
2022/11/06 05:53:31;;;;;;;14.40;4.93;;;9.40;99.90;;;;;;5143872;27;20036;-48
2022/11/06 05:55:56;;;;;;;12.73;4.30;;;9.30;99.90;;;;;;5123882;27;20487;-49
2022/11/06 05:58:22;;;;;;;13.63;5.05;;;9.30;99.90;;;;;;5143139;27;20143;-47
2022/11/06 06:00:48;;;;;;;9.27;4.05;;;9.40;99.90;;;;;;5144148;27;20039;-49
2022/11/06 06:03:13;;;;;;;9.07;5.00;;;9.20;99.90;;;;;;5147315;27;20047;-50
2022/11/06 06:05:39;;;;;;;11.23;4.30;;;9.30;99.90;;;;;;5153347;27;20046;-49
2022/11/06 06:08:05;;;;;;;9.90;4.32;;;9.50;99.90;;;;;;5140534;27;20130;-48
2022/11/06 06:10:31;;;;;;;8.63;3.67;;;9.30;99.90;;;;;;5146158;27;20038;-49
2022/11/06 06:12:56;;;;;;;12.32;4.00;;;9.30;99.90;;;;;;5135703;27;20035;-48
2022/11/06 06:15:22;;;;;;;13.77;4.35;;;9.40;99.90;;;;;;5145205;27;20031;-48
2022/11/06 06:17:48;;;;;;;11.75;4.10;;;9.30;99.90;;;;;;5146136;27;20039;-48
2022/11/06 06:20:14;;;;;;;12.70;4.20;;;9.40;99.90;;;;;;5140800;27;20121;-50
2022/11/06 06:22:39;;;;;;;10.93;4.05;;;9.30;99.90;;;;;;5145765;27;20119;-48
2022/11/06 06:25:05;;;;;;;11.63;3.67;;;9.30;99.90;;;;;;5148739;27;20118;-48
2022/11/06 06:27:31;;;;;;;14.45;3.67;;;9.40;99.90;;;;;;5136298;27;20042;-51
2022/11/06 06:29:56;;;;;;;15.95;4.10;;;9.30;99.90;;;;;;5124276;27;20050;-49
2022/11/06 06:32:22;;;;;;;11.80;3.70;;;9.30;99.90;;;;;;5138970;27;20394;-49
2022/11/06 06:34:48;;;;;;;9.60;3.80;;;9.30;99.90;;;;;;5138023;27;20422;-50
2022/11/06 06:37:14;;;;;;;13.20;4.05;;;9.50;99.90;;;;;;5142354;27;20031;-50
2022/11/06 06:39:39;;;;;;;8.27;3.67;;;9.50;99.90;;;;;;5135020;27;20043;-48
2022/11/06 06:42:05;;;;;;;10.90;3.70;;;9.60;99.90;;;;;;5134110;27;20403;-49
2022/11/06 06:44:31;;;;;;;10.30;4.00;;;9.40;99.90;;;;;;5147763;27;20045;-51
2022/11/06 06:46:56;;;;;;;8.02;3.25;;;9.50;99.90;;;;;;5139585;27;20042;-48
2022/11/06 06:49:22;;;;;;;11.50;3.13;;;9.60;99.90;;;;;;5147714;27;20041;-48
2022/11/06 06:51:48;;;;;;;11.60;3.53;;;9.60;99.90;;;;;;5140195;27;20048;-48
2022/11/06 06:54:14;;;;;;;10.75;3.42;;;9.60;99.90;;;;;;5143852;27;20042;-48
2022/11/06 06:56:40;;;;;;;13.15;3.88;;;9.60;99.90;;;;;;5138542;27;20478;-49
2022/11/06 06:59:06;;;;;;;9.65;3.08;;;9.60;99.90;;;;;;5139512;27;20027;-48
2022/11/06 07:01:32;;;;;;;10.10;3.53;;;9.60;99.90;;;;;;5146819;27;20095;-51
2022/11/06 07:03:58;;;;;;;13.13;3.75;;;9.50;99.90;;;;;;5143794;27;20489;-49
2022/11/06 07:06:24;;;;;;;13.13;3.53;;;9.60;99.90;;;;;;5141468;27;20083;-49
2022/11/06 07:08:54;;;;;;;15.15;3.40;;;9.60;99.90;;;;;;5116249;27;20073;-48
2022/11/06 07:11:20;;;;;;;14.40;3.15;;;9.70;99.90;;;;;;5140985;27;20039;-52
2022/11/06 07:13:47;;;;;;;8.07;3.22;;;9.70;99.90;;;;;;5136949;27;20523;-49
2022/11/06 07:16:13;;;;;;;9.88;3.50;;;9.70;99.90;;;;;;5137604;27;20030;-47
2022/11/06 07:18:39;;;;;;;8.38;2.85;;;9.60;99.90;;;;;;5146073;27;20031;-50
2022/11/06 07:21:07;;;;;;;9.30;3.40;;;9.50;99.90;;;;;;5144558;27;20061;-52
2022/11/06 07:23:34;;;;;;;8.93;3.28;;;9.70;99.90;;;;;;5136523;27;20489;-49
2022/11/06 07:26:00;;;;;;;12.43;3.13;;;9.60;99.90;;;;;;5134837;27;20031;-49
2022/11/06 07:28:26;;;;;;;9.13;2.97;;;9.60;99.90;;;;;;5137272;27;20135;-49
2022/11/06 07:30:56;;;;;;;11.65;3.50;;;9.60;99.90;;;;;;5137215;27;20123;-50
2022/11/06 07:33:21;;;;;;;8.52;3.25;;;9.70;99.90;;;;;;5137990;27;20126;-50
2022/11/06 07:35:47;;;;;;;11.07;3.17;;;9.70;99.90;;;;;;5135873;27;20173;-48
2022/11/06 07:38:13;;;;;;;9.70;3.00;;;9.70;99.90;;;;;;5145688;27;20031;-48
2022/11/06 07:40:38;;;;;;;11.88;3.92;;;9.70;99.90;;;;;;5145157;27;20444;-49
2022/11/06 07:43:09;;;;;;;8.98;3.30;;;9.70;99.90;;;;;;5143328;27;20045;-48
2022/11/06 07:45:36;;;;;;;9.70;3.40;;;9.70;99.90;;;;;;5147518;27;20099;-48
2022/11/06 07:48:02;;;;;;;9.73;3.15;;;9.80;99.90;;;;;;5135640;27;20462;-52
2022/11/06 07:50:28;;;;;;;7.20;3.45;;;9.80;99.90;;;;;;5142872;27;20466;-50
2022/11/06 07:52:54;;;;;;;9.52;3.13;;;9.70;99.90;;;;;;5140359;27;20058;-50
2022/11/06 07:55:20;;;;;;;8.07;3.10;;;9.80;99.90;;;;;;5142436;27;20030;-48
2022/11/06 07:57:45;;;;;;;8.98;3.17;;;9.80;99.90;;;;;;5127915;27;20039;-48
2022/11/06 08:00:12;;;;;;;12.60;2.83;;;9.70;99.90;;;;;;5135059;27;20457;-51
2022/11/06 08:02:38;;;;;;;10.30;3.20;;;9.70;99.90;;;;;;5135172;27;20070;-49
2022/11/06 08:05:04;;;;;;;7.38;3.45;;;9.80;99.90;;;;;;5117679;27;20470;-47
2022/11/06 08:07:29;;;;;;;7.15;3.47;;;9.90;99.90;;;;;;5137901;27;20027;-48
2022/11/06 08:09:55;;;;;;;11.27;3.20;;;9.90;99.90;;;;;;5142438;27;20058;-49
2022/11/06 08:12:21;;;;;;;9.85;3.55;;;9.80;99.90;;;;;;5107841;27;20056;-48
2022/11/06 08:14:46;;;;;;;8.88;3.20;;;9.90;99.90;;;;;;5143869;27;20039;-49
2022/11/06 08:17:12;;;;;;;7.50;3.00;;;9.80;99.90;;;;;;5140953;27;20058;-48
2022/11/06 08:19:38;;;;;;;7.68;2.83;;;9.90;99.90;;;;;;5143617;27;20038;-48
2022/11/06 08:22:03;;;;;;;9.02;3.17;;;9.90;99.90;;;;;;5148136;27;20042;-48
2022/11/06 08:24:29;;;;;;;8.75;3.00;;;10.00;99.90;;;;;;5143292;27;20043;-46
2022/11/06 08:26:56;;;;;;;9.68;3.35;;;10.00;99.90;;;;;;5145010;27;20404;-48
2022/11/06 08:29:21;;;;;;;6.60;2.53;;;10.00;99.90;;;;;;5142164;27;20051;-48
2022/11/06 08:31:47;;;;;;;10.15;3.42;;;10.00;99.90;;;;;;5135256;27;20144;-47
2022/11/06 08:34:12;;;;;;;9.90;3.20;;;10.10;99.90;;;;;;5128519;27;20042;-48
2022/11/06 08:36:44;;;;;;;12.27;3.35;;;10.10;99.90;;;;;;5141728;27;20038;-49
2022/11/06 08:39:10;;;;;;;10.02;3.05;;;10.00;99.90;;;;;;5121591;27;20454;-47
2022/11/06 08:41:38;;;;;;;12.05;3.00;;;10.10;99.90;;;;;;5121003;27;20167;-52
2022/11/06 08:44:03;;;;;;;12.55;3.40;;;10.10;99.90;;;;;;5145464;27;20043;-48
2022/11/06 08:46:29;;;;;;;9.88;3.15;;;10.10;99.90;;;;;;5139633;27;20080;-49
2022/11/06 08:48:55;;;;;;;12.88;3.47;;;10.00;99.90;;;;;;5122881;27;20492;-47
2022/11/06 08:51:21;;;;;;;7.30;2.97;;;10.10;99.90;;;;;;5147362;27;20425;-48
2022/11/06 08:53:46;;;;;;;8.13;3.13;;;10.10;99.90;;;;;;5143879;27;20022;-48
2022/11/06 08:56:13;;;;;;;12.85;3.03;;;10.30;99.90;;;;;;5123492;27;20168;-48
2022/11/06 08:58:38;;;;;;;10.43;3.33;;;10.30;99.90;;;;;;5152014;27;20039;-47
2022/11/06 09:01:04;;;;;;;10.43;2.78;;;10.30;99.90;;;;;;5144262;27;20538;-47
2022/11/06 09:03:30;;;;;;;11.77;3.10;;;10.40;99.90;;;;;;5139999;27;20392;-47
2022/11/06 09:05:56;;;;;;;9.57;2.70;;;10.50;99.90;;;;;;5141435;27;20065;-49
2022/11/06 09:08:23;;;;;;;12.18;3.15;;;10.60;99.90;;;;;;5137170;27;20031;-51
2022/11/06 09:10:49;;;;;;;7.47;3.22;;;10.70;99.90;;;;;;5127082;27;20039;-48
2022/11/06 09:13:15;;;;;;;6.38;2.58;;;10.80;99.90;;;;;;5146439;27;20473;-51
2022/11/06 09:15:41;;;;;;;12.88;2.92;;;10.80;99.90;;;;;;5140892;27;20114;-53
2022/11/06 09:18:07;;;;;;;8.68;2.88;;;10.80;99.90;;;;;;5140317;27;20146;-51
2022/11/06 09:20:33;;;;;;;6.45;2.40;;;10.80;99.90;;;;;;5146093;27;20050;-51
2022/11/06 09:23:01;;;;;;;7.45;2.88;;;10.70;99.90;;;;;;5149024;27;20038;-49
2022/11/06 09:25:28;;;;;;;8.10;2.85;;;10.70;99.90;;;;;;5139145;27;20043;-48
2022/11/06 09:27:54;;;;;;;7.85;2.80;;;10.80;99.90;;;;;;5140396;27;20042;-47
2022/11/06 09:30:21;;;;;;;5.63;2.40;;;10.80;99.90;;;;;;5137592;27;20031;-47
2022/11/06 09:32:49;;;;;;;9.25;2.58;;;10.80;99.90;;;;;;5121566;27;20043;-48
2022/11/06 09:35:15;;;;;;;7.88;2.78;;;10.80;99.90;;;;;;5131979;27;20066;-47
2022/11/06 09:37:41;;;;;;;9.38;2.33;;;10.90;99.90;;;;;;5114975;27;20055;-52
2022/11/06 09:40:16;;;;;;;8.68;2.72;;;10.90;99.90;;;;;;5138165;27;20100;-51
2022/11/06 09:42:48;;;;;;;10.43;2.72;;;11.00;99.90;;;;;;5139961;27;20512;-50
2022/11/06 09:45:21;;;;;;;10.23;2.40;;;11.00;99.90;;;;;;5134569;27;20043;-51
2022/11/06 09:48:11;;;;;;;7.43;2.60;;;11.00;99.90;;;;;;5139062;27;20066;-48
2022/11/06 09:50:43;;;;;;;6.15;2.28;;;11.10;99.90;;;;;;5125817;27;20079;-51
2022/11/06 09:53:33;;;;;;;10.55;2.97;;;11.10;99.90;;;;;;5141996;27;20035;-48
2022/11/06 09:56:00;;;;;;;8.48;2.65;;;11.10;99.90;;;;;;5134672;27;20069;-47
2022/11/06 09:58:36;;;;;;;8.80;2.40;;;11.10;99.90;;;;;;5141540;27;20435;-48
2022/11/06 10:01:17;;;;;;;7.93;2.45;;;11.20;99.90;;;;;;5144299;27;20077;-47
2022/11/06 10:04:03;;;;;;;7.60;2.65;;;11.10;99.90;;;;;;5151805;27;20035;-50
2022/11/06 10:06:28;;;;;;;7.47;2.50;;;11.00;99.90;;;;;;5127369;27;20039;-48
2022/11/06 10:09:04;;;;;;;9.35;2.65;;;11.00;99.90;;;;;;5135385;27;20038;-48
2022/11/06 10:11:58;;;;;;;8.93;2.80;;;11.10;99.90;;;;;;5125538;27;20477;-49
2022/11/06 10:14:35;;;;;;;11.93;2.55;;;11.10;99.90;;;;;;5113619;27;20035;-47
2022/11/06 10:17:34;;;;;;;8.20;2.50;;;11.10;99.90;;;;;;5108579;27;20032;-49
2022/11/06 10:20:17;;;;;;;8.68;2.50;;;11.20;99.90;;;;;;5127915;27;20031;-48
2022/11/06 10:23:02;;;;;;;5.72;2.22;;;11.30;99.90;;;;;;5130757;27;20078;-47
2022/11/06 10:26:06;;;;;;;6.80;2.30;;;11.30;99.90;;;;;;5108683;27;20034;-47
2022/11/06 10:28:37;;;;;;;8.80;2.40;;;11.30;99.90;;;;;;5121098;27;20051;-48
2022/11/06 10:31:17;;;;;;;7.57;2.67;;;11.40;99.90;;;;;;5128154;27;20035;-48
2022/11/06 10:33:50;;;;;;;8.00;2.53;;;11.40;99.90;;;;;;5135734;27;20081;-52
2022/11/06 10:36:20;;;;;;;8.85;2.20;;;11.40;99.90;;;;;;5129377;27;20069;-51
2022/11/06 10:38:48;;;;;;;7.65;2.28;;;11.50;99.90;;;;;;5133446;27;20048;-52
2022/11/06 10:41:23;;;;;;;7.25;2.40;;;11.60;99.90;;;;;;5130931;27;20448;-48
2022/11/06 10:43:57;;;;;;;6.80;2.15;;;11.60;99.90;;;;;;5129087;27;20046;-51
2022/11/06 10:46:36;;;;;;;6.07;2.00;;;11.60;99.90;;;;;;5129851;27;20043;-49
2022/11/06 10:49:10;;;;;;;7.80;2.10;;;11.70;99.90;;;;;;5129698;27;20055;-51
2022/11/06 10:52:00;;;;;;;8.13;2.35;;;11.70;99.90;;;;;;5132761;27;20090;-47
2022/11/06 10:54:44;;;;;;;5.45;2.28;;;11.60;99.90;;;;;;5125944;27;20564;-50
2022/11/06 10:57:09;;;;;;;7.75;2.75;;;11.60;99.90;;;;;;5135305;27;20536;-49
2022/11/06 10:59:35;;;;;;;6.10;2.00;;;11.70;99.90;;;;;;5126398;27;20049;-50
2022/11/06 11:02:01;;;;;;;10.38;2.63;;;11.70;99.90;;;;;;5116080;27;20068;-49
2022/11/06 11:04:31;;;;;;;8.05;2.25;;;11.70;99.90;;;;;;5137301;27;20471;-50
2022/11/06 11:07:01;;;;;;;6.97;2.40;;;11.70;99.90;;;;;;5132804;27;20051;-49
2022/11/06 11:09:32;;;;;;;6.63;2.20;;;11.60;99.90;;;;;;5112072;27;20047;-48
2022/11/06 11:11:59;;;;;;;6.85;2.05;;;11.60;99.90;;;;;;5132012;27;20122;-49
2022/11/06 11:14:30;;;;;;;5.85;1.92;;;11.60;99.90;;;;;;5106625;27;20046;-47
2022/11/06 11:17:00;;;;;;;5.75;2.00;;;11.60;99.90;;;;;;5134743;27;20113;-50
2022/11/06 11:19:36;;;;;;;5.47;2.25;;;11.60;99.90;;;;;;5127978;27;20129;-49
2022/11/06 11:22:15;;;;;;;8.20;2.70;;;11.70;99.90;;;;;;5105567;27;20039;-49
2022/11/06 11:25:19;;;;;;;6.75;2.00;;;11.60;99.90;;;;;;5128787;27;20088;-52
2022/11/06 11:27:45;;;;;;;7.27;1.83;;;11.60;99.90;;;;;;5127709;27;20034;-51
2022/11/06 11:30:20;;;;;;;6.88;2.28;;;11.60;99.90;;;;;;5117417;27;20031;-50
2022/11/06 11:32:46;;;;;;;5.75;2.20;;;11.60;99.90;;;;;;5124538;27;20048;-50
2022/11/06 11:35:18;;;;;;;7.75;2.22;;;11.70;99.90;;;;;;5130196;27;20382;-50
2022/11/06 11:37:44;;;;;;;9.27;2.10;;;11.60;99.90;;;;;;5127800;27;20035;-47
2022/11/06 11:40:34;;;;;;;7.40;2.45;;;11.60;99.90;;;;;;5123325;27;20039;-50
2022/11/06 11:43:25;;;;;;;7.28;2.63;;;11.60;99.90;;;;;;5134963;27;20189;-51
2022/11/06 11:46:16;;;;;;;10.02;2.13;;;11.70;99.90;;;;;;5121930;27;20110;-50
2022/11/06 11:48:54;;;;;;;7.95;2.30;;;11.70;99.90;;;;;;5117189;27;20126;-48
2022/11/06 11:51:35;;;;;;;7.88;1.90;;;11.80;99.90;;;;;;5124040;27;20131;-47
2022/11/06 11:54:12;;;;;;;8.50;2.17;;;11.80;99.90;;;;;;5121900;27;20576;-48
2022/11/06 11:56:59;;;;;;;8.98;1.88;;;11.80;99.90;;;;;;5124133;27;20042;-49
2022/11/06 11:59:50;;;;;;;7.95;2.25;;;11.80;99.90;;;;;;5124610;27;20355;-52
2022/11/06 12:02:16;;;;;;;4.28;1.50;;;11.80;99.90;;;;;;5108749;27;20048;-50
2022/11/06 12:04:46;;;;;;;6.30;1.80;;;11.80;99.90;;;;;;5127257;27;20088;-48
2022/11/06 12:07:32;;;;;;;8.38;2.13;;;11.90;99.90;;;;;;5122892;27;20035;-51
2022/11/06 12:10:04;;;;;;;6.25;1.85;;;11.90;99.90;;;;;;5125456;27;20039;-50
2022/11/06 12:12:32;;;;;;;8.95;2.28;;;12.00;99.90;;;;;;5125302;27;20031;-49
2022/11/06 12:15:21;;;;;;;7.93;1.70;;;12.00;99.90;;;;;;5128925;27;20031;-49
2022/11/06 12:17:54;;;;;;;9.32;2.15;;;12.00;99.90;;;;;;5124083;27;20493;-49
2022/11/06 12:20:46;;;;;;;7.82;1.90;;;12.00;99.90;;;;;;5128341;27;20066;-49
2022/11/06 12:23:30;;;;;;;8.15;2.00;;;12.00;99.90;;;;;;5093382;27;20068;-47
2022/11/06 12:26:22;;;;;;;3.63;1.52;;;12.00;99.90;;;;;;5132808;27;20038;-48
2022/11/06 12:28:53;;;;;;;6.82;2.00;;;12.00;99.90;;;;;;5131872;27;20046;-48
2022/11/06 12:31:22;;;;;;;5.55;1.95;;;12.00;99.90;;;;;;5133754;27;20654;-48
2022/11/06 12:33:48;;;;;;;9.50;1.92;;;12.00;99.90;;;;;;5132438;27;20092;-48
2022/11/06 12:36:19;;;;;;;5.25;1.67;;;12.00;99.90;;;;;;5138339;27;20038;-49
2022/11/06 12:38:56;;;;;;;6.50;1.90;;;12.00;99.90;;;;;;5146017;27;20463;-48
2022/11/06 12:41:26;;;;;;;8.80;2.20;;;12.00;99.90;;;;;;5142242;27;20192;-48
2022/11/06 12:43:52;;;;;;;4.70;1.92;;;12.00;99.90;;;;;;5136230;27;20042;-49
2022/11/06 12:46:45;;;;;;;9.35;2.28;;;11.90;99.90;;;;;;5146494;27;20039;-49
2022/11/06 12:49:20;;;;;;;9.38;1.88;;;11.90;99.90;;;;;;5133812;27;20043;-49
2022/11/06 12:51:54;;;;;;;7.15;1.80;;;12.00;99.90;;;;;;5129460;27;20122;-47
2022/11/06 12:54:38;;;;;;;5.43;1.92;;;12.00;99.90;;;;;;5138655;27;20035;-50
2022/11/06 12:57:10;;;;;;;7.15;2.08;;;12.00;99.90;;;;;;5135054;27;20196;-47
2022/11/06 12:59:59;;;;;;;5.70;1.65;;;12.00;99.90;;;;;;5135046;27;20146;-48
2022/11/06 13:02:34;;;;;;;5.63;1.38;;;12.00;99.90;;;;;;5139338;27;20039;-47
2022/11/06 13:05:05;;;;;;;6.07;1.73;;;12.00;99.90;;;;;;5140408;27;20037;-49
2022/11/06 13:07:55;;;;;;;5.82;1.30;;;12.00;99.90;;;;;;5135345;27;20043;-47
2022/11/06 13:10:35;;;;;;;7.15;2.03;;;12.00;99.90;;;;;;5137187;27;20031;-47
2022/11/06 13:13:18;;;;;;;8.73;2.13;;;12.00;99.90;;;;;;5128705;27;20058;-48
2022/11/06 13:15:56;;;;;;;6.22;1.98;;;12.00;99.90;;;;;;5148181;27;20035;-52
2022/11/06 13:18:39;;;;;;;6.57;1.70;;;12.00;99.90;;;;;;5144292;27;20055;-52
2022/11/06 13:21:12;;;;;;;9.18;1.88;;;12.00;99.90;;;;;;5142292;27;20041;-48
2022/11/06 13:23:47;;;;;;;7.38;1.73;;;12.00;99.90;;;;;;5148306;27;20465;-50